sensor_id;sensor_type;location;lat;lon;timestamp;pressure;altitude;pressure_sealevel;temperature;humidity
21664;BME280;10993;52.510;13.456;2022-09-02T00:03:43;-26589.97;;;15.04;83.17
21664;BME280;10993;52.510;13.456;2022-09-02T00:08:44;-26590.91;;;15.07;82.89
21664;BME280;10993;52.510;13.456;2022-09-02T00:13:45;-26590.28;;;15.05;83.12
21664;BME280;10993;52.510;13.456;2022-09-02T00:18:47;-26594.66;;;15.19;82.20
21664;BME280;10993;52.510;13.456;2022-09-02T00:23:48;-26596.53;;;15.26;81.89
21664;BME280;10993;52.510;13.456;2022-09-02T00:28:48;-26597.16;;;15.28;81.52
21664;BME280;10993;52.510;13.456;2022-09-02T00:33:50;-26598.06;;;15.31;81.31
21664;BME280;10993;52.510;13.456;2022-09-02T00:38:51;-26598.38;;;15.32;80.94
21664;BME280;10993;52.510;13.456;2022-09-02T00:43:54;-26599.31;;;15.35;80.32
21664;BME280;10993;52.510;13.456;2022-09-02T00:49:00;-26599.47;;;15.35;80.77
21664;BME280;10993;52.510;13.456;2022-09-02T00:54:02;-26593.56;;;15.16;81.07
21664;BME280;10993;52.510;13.456;2022-09-02T00:59:02;-26599.00;;;15.34;80.47
21664;BME280;10993;52.510;13.456;2022-09-02T01:04:04;-26598.38;;;15.32;80.23
21664;BME280;10993;52.510;13.456;2022-09-02T01:09:09;-26597.75;;;15.30;80.19
21664;BME280;10993;52.510;13.456;2022-09-02T01:14:10;-26589.34;;;15.02;80.90
21664;BME280;10993;52.510;13.456;2022-09-02T01:19:19;-26597.16;;;15.28;80.33
21664;BME280;10993;52.510;13.456;2022-09-02T01:24:25;-26594.81;;;15.20;80.98
21664;BME280;10993;52.510;13.456;2022-09-02T01:29:27;-26593.72;;;15.16;81.16
21664;BME280;10993;52.510;13.456;2022-09-02T01:34:28;-26590.28;;;15.05;81.74
21664;BME280;10993;52.510;13.456;2022-09-02T01:39:30;-26591.38;;;15.09;81.92
21664;BME280;10993;52.510;13.456;2022-09-02T01:44:31;-26591.06;;;15.08;81.97
21664;BME280;10993;52.510;13.456;2022-09-02T01:49:32;-26591.06;;;15.08;82.28
21664;BME280;10993;52.510;13.456;2022-09-02T01:54:34;-26589.81;;;15.03;82.78
21664;BME280;10993;52.510;13.456;2022-09-02T01:59:35;-26586.09;;;14.91;82.05
21664;BME280;10993;52.510;13.456;2022-09-02T02:04:36;-26589.34;;;15.02;82.65
21664;BME280;10993;52.510;13.456;2022-09-02T02:09:38;-26586.41;;;14.92;83.25
21664;BME280;10993;52.510;13.456;2022-09-02T02:14:38;-26585.63;;;14.90;83.85
21664;BME280;10993;52.510;13.456;2022-09-02T02:19:39;-26586.53;;;14.93;83.59
21664;BME280;10993;52.510;13.456;2022-09-02T02:24:41;-26587.00;;;14.94;83.64
21664;BME280;10993;52.510;13.456;2022-09-02T02:29:41;-26579.06;;;14.68;85.32
21664;BME280;10993;52.510;13.456;2022-09-02T02:34:42;-26580.47;;;14.73;85.32
21664;BME280;10993;52.510;13.456;2022-09-02T02:39:43;-26578.75;;;14.67;85.71
21664;BME280;10993;52.510;13.456;2022-09-02T02:44:44;-26577.66;;;14.63;86.29
21664;BME280;10993;52.510;13.456;2022-09-02T02:49:44;-26568.94;;;14.34;87.75
21664;BME280;10993;52.510;13.456;2022-09-02T02:54:46;-26570.81;;;14.41;88.08
21664;BME280;10993;52.510;13.456;2022-09-02T02:59:46;-26566.28;;;14.26;89.09
21664;BME280;10993;52.510;13.456;2022-09-02T03:04:47;-26565.66;;;14.24;89.40
21664;BME280;10993;52.510;13.456;2022-09-02T03:09:51;-26563.47;;;14.16;90.11
21664;BME280;10993;52.510;13.456;2022-09-02T03:14:51;-26560.81;;;14.08;91.29
21664;BME280;10993;52.510;13.456;2022-09-02T03:19:52;-26558.78;;;14.01;92.18
21664;BME280;10993;52.510;13.456;2022-09-02T03:24:54;-26559.56;;;14.03;91.52
21664;BME280;10993;52.510;13.456;2022-09-02T03:29:54;-26553.03;;;13.82;93.34
21664;BME280;10993;52.510;13.456;2022-09-02T03:34:55;-26555.66;;;13.91;93.13
21664;BME280;10993;52.510;13.456;2022-09-02T03:40:00;-26550.53;;;13.74;94.71
21664;BME280;10993;52.510;13.456;2022-09-02T03:45:01;-26548.81;;;13.68;95.42
21664;BME280;10993;52.510;13.456;2022-09-02T03:50:02;-26547.25;;;13.63;95.92
21664;BME280;10993;52.510;13.456;2022-09-02T03:55:05;-26547.09;;;13.62;96.44
21664;BME280;10993;52.510;13.456;2022-09-02T04:00:09;-26538.81;;;13.35;96.98
21664;BME280;10993;52.510;13.456;2022-09-02T04:05:11;-26548.50;;;13.67;96.69
21664;BME280;10993;52.510;13.456;2022-09-02T04:10:13;-26545.84;;;13.58;96.67
21664;BME280;10993;52.510;13.456;2022-09-02T04:15:17;-26545.06;;;13.56;96.05
21664;BME280;10993;52.510;13.456;2022-09-02T04:20:18;-26549.75;;;13.71;96.00
21664;BME280;10993;52.510;13.456;2022-09-02T04:25:20;-26552.25;;;13.79;95.30
21664;BME280;10993;52.510;13.456;2022-09-02T04:30:20;-26547.88;;;13.65;94.71
21664;BME280;10993;52.510;13.456;2022-09-02T04:35:22;-26555.81;;;13.91;94.40
21664;BME280;10993;52.510;13.456;2022-09-02T04:40:23;-26554.72;;;13.88;93.98
21664;BME280;10993;52.510;13.456;2022-09-02T04:45:24;-26558.78;;;14.01;93.73
21664;BME280;10993;52.510;13.456;2022-09-02T04:50:24;-26556.44;;;13.93;93.88
21664;BME280;10993;52.510;13.456;2022-09-02T04:55:26;-26556.91;;;13.95;93.71
21664;BME280;10993;52.510;13.456;2022-09-02T05:00:26;-26558.94;;;14.01;93.47
21664;BME280;10993;52.510;13.456;2022-09-02T05:05:27;-26561.91;;;14.11;92.50
21664;BME280;10993;52.510;13.456;2022-09-02T05:10:28;-26567.53;;;14.30;91.66
21664;BME280;10993;52.510;13.456;2022-09-02T05:15:29;-26570.97;;;14.41;90.83
21664;BME280;10993;52.510;13.456;2022-09-02T05:20:30;-26568.47;;;14.33;90.80
21664;BME280;10993;52.510;13.456;2022-09-02T05:25:35;-26564.88;;;14.21;90.74
21664;BME280;10993;52.510;13.456;2022-09-02T05:30:37;-26564.56;;;14.20;91.47
21664;BME280;10993;52.510;13.456;2022-09-02T05:35:39;-26563.78;;;14.17;92.19
21664;BME280;10993;52.510;13.456;2022-09-02T05:40:41;-26573.59;;;14.50;90.26
21664;BME280;10993;52.510;13.456;2022-09-02T05:45:41;-26579.69;;;14.70;89.83
21664;BME280;10993;52.510;13.456;2022-09-02T05:50:41;-26574.84;;;14.54;89.03
21664;BME280;10993;52.510;13.456;2022-09-02T05:55:43;-26594.66;;;15.19;86.82
21664;BME280;10993;52.510;13.456;2022-09-02T06:00:44;-26604.00;;;15.50;84.64
21664;BME280;10993;52.510;13.456;2022-09-02T06:05:53;-26613.66;;;15.82;81.92
21664;BME280;10993;52.510;13.456;2022-09-02T06:10:54;-26615.19;;;15.88;82.70
21664;BME280;10993;52.510;13.456;2022-09-02T06:15:55;-26617.84;;;15.96;81.95
21664;BME280;10993;52.510;13.456;2022-09-02T06:20:56;-26617.69;;;15.96;82.27
21664;BME280;10993;52.510;13.456;2022-09-02T06:25:58;-26634.94;;;16.53;77.76
21664;BME280;10993;52.510;13.456;2022-09-02T06:30:59;-26654.97;;;17.19;75.24
21664;BME280;10993;52.510;13.456;2022-09-02T06:35:59;-26679.34;;;18.00;70.70
21664;BME280;10993;52.510;13.456;2022-09-02T06:41:01;-26702.88;;;18.79;65.85
21664;BME280;10993;52.510;13.456;2022-09-02T06:46:01;-26760.22;;;20.70;57.29
21664;BME280;10993;52.510;13.456;2022-09-02T06:51:02;-26815.34;;;22.55;50.03
21664;BME280;10993;52.510;13.456;2022-09-02T06:56:06;-26909.75;;;25.72;40.93
21664;BME280;10993;52.510;13.456;2022-09-02T07:01:06;-26904.56;;;25.55;39.82
21664;BME280;10993;52.510;13.456;2022-09-02T07:06:09;-26914.03;;;25.87;39.50
21664;BME280;10993;52.510;13.456;2022-09-02T07:11:17;-26940.31;;;26.75;37.23
21664;BME280;10993;52.510;13.456;2022-09-02T07:16:18;-26971.22;;;27.80;35.75
21664;BME280;10993;52.510;13.456;2022-09-02T07:21:19;-26985.22;;;28.27;33.67
21664;BME280;10993;52.510;13.456;2022-09-02T07:26:20;-27020.31;;;29.46;32.26
21664;BME280;10993;52.510;13.456;2022-09-02T07:31:22;-26999.06;;;28.74;32.87
21664;BME280;10993;52.510;13.456;2022-09-02T07:36:22;-27035.16;;;29.97;32.05
21664;BME280;10993;52.510;13.456;2022-09-02T07:41:24;-26994.94;;;28.60;33.10
21664;BME280;10993;52.510;13.456;2022-09-02T07:46:24;-27024.72;;;29.61;31.22
21664;BME280;10993;52.510;13.456;2022-09-02T07:51:25;-27037.75;;;30.06;30.32
21664;BME280;10993;52.510;13.456;2022-09-02T07:56:27;-27023.94;;;29.59;30.67
21664;BME280;10993;52.510;13.456;2022-09-02T08:01:28;-27003.75;;;28.90;32.04
21664;BME280;10993;52.510;13.456;2022-09-02T08:06:29;-26989.03;;;28.40;32.48
21664;BME280;10993;52.510;13.456;2022-09-02T08:11:32;-26940.00;;;26.74;35.87
21664;BME280;10993;52.510;13.456;2022-09-02T08:16:38;-26914.66;;;25.89;37.38
21664;BME280;10993;52.510;13.456;2022-09-02T08:21:38;-26921.69;;;26.12;37.65
21664;BME280;10993;52.510;13.456;2022-09-02T08:26:41;-26970.00;;;27.76;34.36
21664;BME280;10993;52.510;13.456;2022-09-02T08:31:41;-26962.25;;;27.49;34.60
21664;BME280;10993;52.510;13.456;2022-09-02T08:36:42;-26976.84;;;27.99;33.82
21664;BME280;10993;52.510;13.456;2022-09-02T08:41:50;-26968.03;;;27.69;34.19
21664;BME280;10993;52.510;13.456;2022-09-02T08:46:57;-26967.72;;;27.68;34.77
21664;BME280;10993;52.510;13.456;2022-09-02T08:52:03;-26968.03;;;27.69;34.78
21664;BME280;10993;52.510;13.456;2022-09-02T08:57:06;-26982.94;;;28.20;33.15
21664;BME280;10993;52.510;13.456;2022-09-02T09:02:15;-26956.75;;;27.31;34.25
21664;BME280;10993;52.510;13.456;2022-09-02T09:07:28;-26965.00;;;27.59;33.82
21664;BME280;10993;52.510;13.456;2022-09-02T09:12:50;-27003.00;;;28.88;32.36
21664;BME280;10993;52.510;13.456;2022-09-02T09:17:54;-26994.50;;;28.59;30.52
21664;BME280;10993;52.510;13.456;2022-09-02T09:23:01;-26991.75;;;28.49;29.32
21664;BME280;10993;52.510;13.456;2022-09-02T09:28:06;-26965.28;;;27.60;30.48
21664;BME280;10993;52.510;13.456;2022-09-02T09:33:07;-26967.44;;;27.67;30.75
21664;BME280;10993;52.510;13.456;2022-09-02T09:38:12;-26939.09;;;26.71;32.34
21664;BME280;10993;52.510;13.456;2022-09-02T09:43:14;-26922.91;;;26.16;33.52
21664;BME280;10993;52.510;13.456;2022-09-02T09:48:21;-26945.78;;;26.94;31.79
21664;BME280;10993;52.510;13.456;2022-09-02T09:53:23;-26937.56;;;26.66;31.83
21664;BME280;10993;52.510;13.456;2022-09-02T09:58:28;-26954.03;;;27.22;31.10
21664;BME280;10993;52.510;13.456;2022-09-02T10:03:31;-26928.41;;;26.35;32.64
21664;BME280;10993;52.510;13.456;2022-09-02T10:08:34;-26882.84;;;24.81;35.33
21664;BME280;10993;52.510;13.456;2022-09-02T10:13:36;-26867.69;;;24.30;36.07
21664;BME280;10993;52.510;13.456;2022-09-02T10:18:41;-26860.31;;;24.06;37.25
21664;BME280;10993;52.510;13.456;2022-09-02T10:23:51;-26832.84;;;23.13;38.93
21664;BME280;10993;52.510;13.456;2022-09-02T10:29:10;-26848.97;;;23.67;36.57
21664;BME280;10993;52.510;13.456;2022-09-02T10:34:19;-26809.97;;;22.37;39.98
21664;BME280;10993;52.510;13.456;2022-09-02T10:39:28;-26811.97;;;22.43;40.10
21664;BME280;10993;52.510;13.456;2022-09-02T10:44:36;-26814.41;;;22.51;40.73
21664;BME280;10993;52.510;13.456;2022-09-02T10:49:57;-26851.59;;;23.76;36.53
21664;BME280;10993;52.510;13.456;2022-09-02T10:55:06;-26826.56;;;22.92;38.25
21664;BME280;10993;52.510;13.456;2022-09-02T11:00:13;-26858.78;;;24.00;36.13
21664;BME280;10993;52.510;13.456;2022-09-02T11:05:17;-26844.53;;;23.52;35.34
21664;BME280;10993;52.510;13.456;2022-09-02T11:10:22;-26831.31;;;23.08;35.54
21664;BME280;10993;52.510;13.456;2022-09-02T11:15:34;-26811.03;;;22.40;37.45
21664;BME280;10993;52.510;13.456;2022-09-02T11:20:43;-26827.34;;;22.95;37.98
21664;BME280;10993;52.510;13.456;2022-09-02T11:25:51;-26890.81;;;25.08;33.44
21664;BME280;10993;52.510;13.456;2022-09-02T11:31:00;-26905.50;;;25.58;33.75
21664;BME280;10993;52.510;13.456;2022-09-02T11:36:03;-26940.00;;;26.74;31.71
21664;BME280;10993;52.510;13.456;2022-09-02T11:41:29;-26941.22;;;26.78;29.90
21664;BME280;10993;52.510;13.456;2022-09-02T11:46:47;-26938.31;;;26.69;28.48
21664;BME280;10993;52.510;13.456;2022-09-02T11:52:01;-26899.69;;;25.38;30.36
21664;BME280;10993;52.510;13.456;2022-09-02T11:57:04;-26865.84;;;24.24;33.22
21664;BME280;10993;52.510;13.456;2022-09-02T12:02:06;-26884.84;;;24.88;31.76
21664;BME280;10993;52.510;13.456;2022-09-02T12:07:24;-26888.34;;;25.00;31.84
21664;BME280;10993;52.510;13.456;2022-09-02T12:13:03;-26845.44;;;23.56;34.21
21664;BME280;10993;52.510;13.456;2022-09-02T12:18:12;-26827.03;;;22.94;35.86
21664;BME280;10993;52.510;13.456;2022-09-02T12:28:48;-26831.78;;;23.10;32.84
21664;BME280;10993;52.510;13.456;2022-09-02T12:33:50;-26846.66;;;23.60;34.22
21664;BME280;10993;52.510;13.456;2022-09-02T12:38:50;-26837.78;;;23.30;35.21
21664;BME280;10993;52.510;13.456;2022-09-02T12:49:27;-26828.56;;;22.99;35.36
21664;BME280;10993;52.510;13.456;2022-09-02T12:54:41;-26827.94;;;22.97;34.27
21664;BME280;10993;52.510;13.456;2022-09-02T12:59:44;-26834.56;;;23.19;34.10
21664;BME280;10993;52.510;13.456;2022-09-02T13:04:56;-26842.69;;;23.46;33.78
21664;BME280;10993;52.510;13.456;2022-09-02T13:10:17;-26836.53;;;23.26;34.54
21664;BME280;10993;52.510;13.456;2022-09-02T13:15:29;-26823.94;;;22.83;34.72
21664;BME280;10993;52.510;13.456;2022-09-02T13:21:09;-26826.41;;;22.92;34.36
21664;BME280;10993;52.510;13.456;2022-09-02T13:26:40;-26842.69;;;23.46;34.15
21664;BME280;10993;52.510;13.456;2022-09-02T13:31:57;-26816.88;;;22.60;34.92
21664;BME280;10993;52.510;13.456;2022-09-02T13:36:59;-26811.97;;;22.43;35.09
21664;BME280;10993;52.510;13.456;2022-09-02T13:42:12;-26816.72;;;22.59;34.99
21664;BME280;10993;52.510;13.456;2022-09-02T13:47:15;-26825.47;;;22.89;35.33
21664;BME280;10993;52.510;13.456;2022-09-02T13:52:20;-26821.03;;;22.74;34.61
21664;BME280;10993;52.510;13.456;2022-09-02T13:57:24;-26819.66;;;22.69;35.47
21664;BME280;10993;52.510;13.456;2022-09-02T14:02:27;-26813.50;;;22.48;36.18
21664;BME280;10993;52.510;13.456;2022-09-02T14:07:34;-26808.09;;;22.30;36.30
21664;BME280;10993;52.510;13.456;2022-09-02T14:12:37;-26809.81;;;22.36;36.47
21664;BME280;10993;52.510;13.456;2022-09-02T14:17:38;-26829.31;;;23.01;35.31
21664;BME280;10993;52.510;13.456;2022-09-02T14:22:40;-26828.56;;;22.99;34.01
21664;BME280;10993;52.510;13.456;2022-09-02T14:27:47;-26818.09;;;22.64;35.70
21664;BME280;10993;52.510;13.456;2022-09-02T14:32:48;-26810.88;;;22.40;36.01
21664;BME280;10993;52.510;13.456;2022-09-02T14:37:52;-26821.81;;;22.76;34.26
21664;BME280;10993;52.510;13.456;2022-09-02T14:42:53;-26819.94;;;22.70;34.54
21664;BME280;10993;52.510;13.456;2022-09-02T14:47:56;-26796.25;;;21.91;36.44
21664;BME280;10993;52.510;13.456;2022-09-02T14:53:03;-26788.25;;;21.64;36.85
21664;BME280;10993;52.510;13.456;2022-09-02T14:58:04;-26782.88;;;21.46;36.68
21664;BME280;10993;52.510;13.456;2022-09-02T15:03:05;-26779.47;;;21.34;36.46
21664;BME280;10993;52.510;13.456;2022-09-02T15:08:07;-26791.34;;;21.74;36.88
21664;BME280;10993;52.510;13.456;2022-09-02T15:13:10;-26801.97;;;22.10;35.79
21664;BME280;10993;52.510;13.456;2022-09-02T15:18:11;-26813.81;;;22.49;34.83
21664;BME280;10993;52.510;13.456;2022-09-02T15:23:13;-26809.66;;;22.35;33.24
21664;BME280;10993;52.510;13.456;2022-09-02T15:28:13;-26804.13;;;22.17;33.69
21664;BME280;10993;52.510;13.456;2022-09-02T15:33:14;-26801.19;;;22.07;34.88
21664;BME280;10993;52.510;13.456;2022-09-02T15:38:15;-26791.94;;;21.76;35.39
21664;BME280;10993;52.510;13.456;2022-09-02T15:43:16;-26783.03;;;21.46;36.05
21664;BME280;10993;52.510;13.456;2022-09-02T15:48:17;-26785.19;;;21.54;35.20
21664;BME280;10993;52.510;13.456;2022-09-02T15:53:19;-26786.72;;;21.59;35.01
21664;BME280;10993;52.510;13.456;2022-09-02T15:58:19;-26789.66;;;21.68;35.59
21664;BME280;10993;52.510;13.456;2022-09-02T16:03:19;-26788.25;;;21.64;35.80
21664;BME280;10993;52.510;13.456;2022-09-02T16:08:21;-26784.88;;;21.52;35.97
21664;BME280;10993;52.510;13.456;2022-09-02T16:13:21;-26782.09;;;21.43;36.79
21664;BME280;10993;52.510;13.456;2022-09-02T16:18:22;-26782.09;;;21.43;36.04
21664;BME280;10993;52.510;13.456;2022-09-02T16:23:24;-26777.78;;;21.29;36.38
21664;BME280;10993;52.510;13.456;2022-09-02T16:28:24;-26773.94;;;21.16;35.89
21664;BME280;10993;52.510;13.456;2022-09-02T16:33:24;-26769.47;;;21.01;36.79
21664;BME280;10993;52.510;13.456;2022-09-02T16:38:26;-26768.38;;;20.97;36.59
21664;BME280;10993;52.510;13.456;2022-09-02T16:43:29;-26765.16;;;20.87;36.74
21664;BME280;10993;52.510;13.456;2022-09-02T16:48:31;-26764.84;;;20.85;37.17
21664;BME280;10993;52.510;13.456;2022-09-02T16:53:34;-26759.44;;;20.67;37.42
21664;BME280;10993;52.510;13.456;2022-09-02T16:58:36;-26759.28;;;20.67;36.90
21664;BME280;10993;52.510;13.456;2022-09-02T17:03:38;-26758.66;;;20.65;37.16
21664;BME280;10993;52.510;13.456;2022-09-02T17:08:39;-26760.22;;;20.70;37.02
21664;BME280;10993;52.510;13.456;2022-09-02T17:13:42;-26755.72;;;20.55;37.99
21664;BME280;10993;52.510;13.456;2022-09-02T17:18:42;-26751.88;;;20.42;38.72
21664;BME280;10993;52.510;13.456;2022-09-02T17:23:44;-26746.78;;;20.25;39.02
21664;BME280;10993;52.510;13.456;2022-09-02T17:28:44;-26745.84;;;20.22;39.53
21664;BME280;10993;52.510;13.456;2022-09-02T17:33:49;-26739.84;;;20.02;39.76
21664;BME280;10993;52.510;13.456;2022-09-02T17:38:55;-26743.22;;;20.13;39.81
21664;BME280;10993;52.510;13.456;2022-09-02T17:43:56;-26739.22;;;20.00;40.02
21664;BME280;10993;52.510;13.456;2022-09-02T17:48:56;-26735.19;;;19.87;40.78
21664;BME280;10993;52.510;13.456;2022-09-02T17:53:58;-26727.47;;;19.61;41.43
21664;BME280;10993;52.510;13.456;2022-09-02T17:59:06;-26725.31;;;19.53;42.02
21664;BME280;10993;52.510;13.456;2022-09-02T18:04:20;-26725.78;;;19.55;42.39
21664;BME280;10993;52.510;13.456;2022-09-02T18:09:27;-26723.75;;;19.48;42.38
21664;BME280;10993;52.510;13.456;2022-09-02T18:14:34;-26717.56;;;19.28;43.30
21664;BME280;10993;52.510;13.456;2022-09-02T18:19:43;-26712.78;;;19.12;44.12
21664;BME280;10993;52.510;13.456;2022-09-02T18:25:02;-26709.84;;;19.02;44.30
21664;BME280;10993;52.510;13.456;2022-09-02T18:30:09;-26703.81;;;18.82;44.61
21664;BME280;10993;52.510;13.456;2022-09-02T18:35:20;-26699.31;;;18.67;45.49
21664;BME280;10993;52.510;13.456;2022-09-02T18:40:28;-26700.88;;;18.72;45.33
21664;BME280;10993;52.510;13.456;2022-09-02T18:45:32;-26699.94;;;18.69;45.84
21664;BME280;10993;52.510;13.456;2022-09-02T18:50:38;-26698.38;;;18.64;45.88
21664;BME280;10993;52.510;13.456;2022-09-02T18:55:41;-26696.53;;;18.58;46.19
21664;BME280;10993;52.510;13.456;2022-09-02T19:00:46;-26692.81;;;18.45;46.35
21664;BME280;10993;52.510;13.456;2022-09-02T19:05:49;-26692.66;;;18.45;46.61
21664;BME280;10993;52.510;13.456;2022-09-02T19:10:56;-26690.03;;;18.36;47.07
21664;BME280;10993;52.510;13.456;2022-09-02T19:15:58;-26684.13;;;18.16;47.60
21664;BME280;10993;52.510;13.456;2022-09-02T19:20:59;-26684.75;;;18.18;47.79
21664;BME280;10993;52.510;13.456;2022-09-02T19:26:00;-26684.91;;;18.19;47.93
21664;BME280;10993;52.510;13.456;2022-09-02T19:31:02;-26681.34;;;18.07;48.58
21664;BME280;10993;52.510;13.456;2022-09-02T19:36:03;-26679.50;;;18.01;48.71
21664;BME280;10993;52.510;13.456;2022-09-02T19:41:05;-26675.59;;;17.88;49.38
21664;BME280;10993;52.510;13.456;2022-09-02T19:46:06;-26669.56;;;17.68;49.87
21664;BME280;10993;52.510;13.456;2022-09-02T19:51:09;-26669.72;;;17.68;50.29
21664;BME280;10993;52.510;13.456;2022-09-02T19:56:13;-26665.84;;;17.56;50.59
21664;BME280;10993;52.510;13.456;2022-09-02T20:01:13;-26662.13;;;17.43;50.95
21664;BME280;10993;52.510;13.456;2022-09-02T20:06:14;-26661.81;;;17.42;50.73
21664;BME280;10993;52.510;13.456;2022-09-02T20:11:15;-26661.03;;;17.40;50.85
21664;BME280;10993;52.510;13.456;2022-09-02T20:16:19;-26660.88;;;17.39;51.02
21664;BME280;10993;52.510;13.456;2022-09-02T20:21:22;-26659.94;;;17.36;51.37
21664;BME280;10993;52.510;13.456;2022-09-02T20:26:34;-26657.31;;;17.27;51.43
21664;BME280;10993;52.510;13.456;2022-09-02T20:31:49;-26651.88;;;17.09;52.11
21664;BME280;10993;52.510;13.456;2022-09-02T20:36:58;-26652.50;;;17.11;51.75
21664;BME280;10993;52.510;13.456;2022-09-02T20:42:19;-26651.72;;;17.09;52.07
21664;BME280;10993;52.510;13.456;2022-09-02T20:47:39;-26649.25;;;17.00;52.25
21664;BME280;10993;52.510;13.456;2022-09-02T20:52:53;-26646.28;;;16.91;52.67
21664;BME280;10993;52.510;13.456;2022-09-02T20:58:02;-26645.03;;;16.86;52.98
21664;BME280;10993;52.510;13.456;2022-09-02T21:03:15;-26641.00;;;16.73;53.58
21664;BME280;10993;52.510;13.456;2022-09-02T21:08:20;-26640.53;;;16.72;53.23
21664;BME280;10993;52.510;13.456;2022-09-02T21:13:33;-26639.13;;;16.67;53.83
21664;BME280;10993;52.510;13.456;2022-09-02T21:18:40;-26634.47;;;16.51;53.81
21664;BME280;10993;52.510;13.456;2022-09-02T21:23:44;-26637.28;;;16.61;53.35
21664;BME280;10993;52.510;13.456;2022-09-02T21:28:50;-26638.34;;;16.64;53.27
21664;BME280;10993;52.510;13.456;2022-09-02T21:33:53;-26638.66;;;16.65;53.43
21664;BME280;10993;52.510;13.456;2022-09-02T21:38:55;-26633.22;;;16.47;54.10
21664;BME280;10993;52.510;13.456;2022-09-02T21:44:06;-26630.75;;;16.39;54.39
21664;BME280;10993;52.510;13.456;2022-09-02T21:49:14;-26619.09;;;16.00;54.99
21664;BME280;10993;52.510;13.456;2022-09-02T21:54:29;-26625.31;;;16.21;55.59
21664;BME280;10993;52.510;13.456;2022-09-02T21:59:47;-26624.84;;;16.19;55.90
21664;BME280;10993;52.510;13.456;2022-09-02T22:04:59;-26620.94;;;16.07;56.01
21664;BME280;10993;52.510;13.456;2022-09-02T22:10:07;-26619.25;;;16.01;56.70
21664;BME280;10993;52.510;13.456;2022-09-02T22:15:16;-26619.25;;;16.01;56.20
21664;BME280;10993;52.510;13.456;2022-09-02T22:20:23;-26614.72;;;15.86;56.77
21664;BME280;10993;52.510;13.456;2022-09-02T22:25:24;-26614.88;;;15.86;57.11
21664;BME280;10993;52.510;13.456;2022-09-02T22:30:30;-26610.84;;;15.73;57.10
21664;BME280;10993;52.510;13.456;2022-09-02T22:35:34;-26612.56;;;15.79;56.63
21664;BME280;10993;52.510;13.456;2022-09-02T22:40:40;-26610.22;;;15.71;57.07
21664;BME280;10993;52.510;13.456;2022-09-02T22:45:47;-26610.38;;;15.72;56.91
21664;BME280;10993;52.510;13.456;2022-09-02T22:51:14;-26608.97;;;15.67;57.16
21664;BME280;10993;52.510;13.456;2022-09-02T22:56:40;-26606.78;;;15.60;57.62
21664;BME280;10993;52.510;13.456;2022-09-02T23:01:49;-26604.31;;;15.51;57.57
21664;BME280;10993;52.510;13.456;2022-09-02T23:06:52;-26603.84;;;15.50;57.77
21664;BME280;10993;52.510;13.456;2022-09-02T23:12:03;-26602.75;;;15.46;57.82
21664;BME280;10993;52.510;13.456;2022-09-02T23:17:17;-26600.25;;;15.38;58.03
21664;BME280;10993;52.510;13.456;2022-09-02T23:22:30;-26599.78;;;15.36;58.16
21664;BME280;10993;52.510;13.456;2022-09-02T23:27:36;-26599.31;;;15.35;58.19
21664;BME280;10993;52.510;13.456;2022-09-02T23:32:59;-26599.63;;;15.36;58.11
21664;BME280;10993;52.510;13.456;2022-09-02T23:38:15;-26591.06;;;15.08;58.52
21664;BME280;10993;52.510;13.456;2022-09-02T23:43:18;-26590.13;;;15.05;58.55
21664;BME280;10993;52.510;13.456;2022-09-02T23:48:30;-26591.22;;;15.08;59.12
21664;BME280;10993;52.510;13.456;2022-09-02T23:53:37;-26592.94;;;15.14;59.23
21664;BME280;10993;52.510;13.456;2022-09-02T23:58:52;-26589.97;;;15.04;59.84
